Airfield :
LOGIN :

Register | Disclaimer

   EN    FR    IT 

 










Legend :    VFR   Marginal VFR   IFR   Intensive IFR   Very Intensive IFR
Visi :
Ceiling :
>= 8 km
>= 3000ft
5 to 8 km
1000 to 3000 ft
1500m to 5 km
500 to 1000 ft
800 to 1500m
200 to 500 ft
< 800m
< 200 ft
Symbols :   Thunderstorms  Fog  Heavy snow  Heavy precipitations  Wind > 20 kt
SIGMETs :     Misc.  Thunderstorms  Icing  Turbulence  Mountain Waves  Volcanic Ashes







- Airport Elevation : 336 ft
- IATA code : GCI
- Download approach charts


EGJB - Guernsey

CURRENT METAR :
  • 160650Z 20012KT 9999 VCSH FEW005 SCT011 BKN045 14/13 Q1017

EXPIRED METARs :
  • 160620Z 20012KT 9999 VCSH FEW005 BKN012 14/13 Q1017
  • 160550Z 20012KT 9999 VCSH SCT008 BKN024 13/13 Q1017 RESHRA
  • 160520Z 20013KT 9999 VCSH BKN008 13/13 Q1017
  • 160450Z 20011KT 9999 VCSH SCT009 BKN030 13/13 Q1016
  • 160420Z 20010KT 9999 VCSH SCT009 BKN030 13/13 Q1016

TAF TAF EGJB
Valid from the 16 at 06:00 until the 16 at 15:00 UTC


160500Z 1606/1615 21012KT 9999 FEW005 BKN025
TEMPO 1606/1610 6000 SHRA BKN005 BKN012
PROB30
TEMPO 1606/1610 2000 RADZ BKN002
ATIS : +44 1481 238 957
No reported NOTAMs for that airfield.



MET'MAP, your aeronautical weather chart ! - Copyright ORBIFLY December 2007 - Disclaimer

ORBIFLY MET'MAP TEAM :

Programming & Development : Alexandra Zaïnal
Concept & Development : Baudouin d'Aumeries
Co-Development & Prog : Marc-Olivier Méhu
Technical & hardware support : Manuel Goepfert

Contact : metmap@orbifly.com




SOURCES & CREDITS :

   NOAA